sensor_id;sensor_type;location;lat;lon;timestamp;temperature;humidity
43987;DHT22;29650;47.378;8.300;2022-07-06T00:00:56;18.70;99.90
43987;DHT22;29650;47.378;8.300;2022-07-06T00:03:23;18.70;99.90
43987;DHT22;29650;47.378;8.300;2022-07-06T00:05:50;18.90;99.90
43987;DHT22;29650;47.378;8.300;2022-07-06T00:08:19;19.10;99.30
43987;DHT22;29650;47.378;8.300;2022-07-06T00:10:46;19.20;98.90
43987;DHT22;29650;47.378;8.300;2022-07-06T00:13:13;19.20;99.00
43987;DHT22;29650;47.378;8.300;2022-07-06T00:15:41;19.20;98.80
43987;DHT22;29650;47.378;8.300;2022-07-06T00:18:08;19.20;98.70
43987;DHT22;29650;47.378;8.300;2022-07-06T00:20:35;19.20;99.70
43987;DHT22;29650;47.378;8.300;2022-07-06T00:23:02;19.00;99.90
43987;DHT22;29650;47.378;8.300;2022-07-06T00:25:31;19.00;99.90
43987;DHT22;29650;47.378;8.300;2022-07-06T00:27:58;18.90;99.90
43987;DHT22;29650;47.378;8.300;2022-07-06T00:30:25;18.70;99.90
43987;DHT22;29650;47.378;8.300;2022-07-06T00:32:52;19.00;99.90
43987;DHT22;29650;47.378;8.300;2022-07-06T00:35:19;19.00;99.90
43987;DHT22;29650;47.378;8.300;2022-07-06T00:37:47;18.80;99.90
43987;DHT22;29650;47.378;8.300;2022-07-06T00:40:14;18.50;99.90
43987;DHT22;29650;47.378;8.300;2022-07-06T00:42:44;18.60;99.90
43987;DHT22;29650;47.378;8.300;2022-07-06T00:45:12;18.50;99.90
43987;DHT22;29650;47.378;8.300;2022-07-06T00:47:40;18.50;99.90
43987;DHT22;29650;47.378;8.300;2022-07-06T00:50:09;18.20;99.90
43987;DHT22;29650;47.378;8.300;2022-07-06T00:52:48;18.30;99.90
43987;DHT22;29650;47.378;8.300;2022-07-06T00:55:17;18.40;99.90
43987;DHT22;29650;47.378;8.300;2022-07-06T00:57:47;18.50;99.90
43987;DHT22;29650;47.378;8.300;2022-07-06T01:00:16;18.70;99.90
43987;DHT22;29650;47.378;8.300;2022-07-06T01:02:44;18.50;99.90
43987;DHT22;29650;47.378;8.300;2022-07-06T01:05:12;18.70;99.90
43987;DHT22;29650;47.378;8.300;2022-07-06T01:07:41;18.80;99.90
43987;DHT22;29650;47.378;8.300;2022-07-06T01:10:09;18.70;99.90
43987;DHT22;29650;47.378;8.300;2022-07-06T01:12:37;18.70;99.90
43987;DHT22;29650;47.378;8.300;2022-07-06T01:15:09;18.60;99.90
43987;DHT22;29650;47.378;8.300;2022-07-06T01:17:37;18.40;99.90
43987;DHT22;29650;47.378;8.300;2022-07-06T01:20:13;18.30;99.90
43987;DHT22;29650;47.378;8.300;2022-07-06T01:22:40;18.20;99.90
43987;DHT22;29650;47.378;8.300;2022-07-06T01:25:08;18.20;99.90
43987;DHT22;29650;47.378;8.300;2022-07-06T01:27:36;18.10;99.90
43987;DHT22;29650;47.378;8.300;2022-07-06T01:30:05;18.30;99.90
43987;DHT22;29650;47.378;8.300;2022-07-06T01:32:33;18.40;99.90
43987;DHT22;29650;47.378;8.300;2022-07-06T01:35:01;18.20;99.90
43987;DHT22;29650;47.378;8.300;2022-07-06T01:37:29;18.20;99.90
43987;DHT22;29650;47.378;8.300;2022-07-06T01:39:58;18.00;99.90
43987;DHT22;29650;47.378;8.300;2022-07-06T01:42:26;17.90;99.90
43987;DHT22;29650;47.378;8.300;2022-07-06T01:44:53;17.80;99.90
43987;DHT22;29650;47.378;8.300;2022-07-06T01:47:20;17.90;99.90
43987;DHT22;29650;47.378;8.300;2022-07-06T01:49:47;18.10;99.90
43987;DHT22;29650;47.378;8.300;2022-07-06T01:52:14;17.90;99.90
43987;DHT22;29650;47.378;8.300;2022-07-06T01:54:42;17.80;99.90
43987;DHT22;29650;47.378;8.300;2022-07-06T01:57:09;17.70;99.90
43987;DHT22;29650;47.378;8.300;2022-07-06T01:59:36;17.60;99.90
43987;DHT22;29650;47.378;8.300;2022-07-06T02:02:03;17.60;99.90
43987;DHT22;29650;47.378;8.300;2022-07-06T02:04:30;17.50;99.90
43987;DHT22;29650;47.378;8.300;2022-07-06T02:06:57;17.70;99.90
43987;DHT22;29650;47.378;8.300;2022-07-06T02:09:24;17.60;99.90
43987;DHT22;29650;47.378;8.300;2022-07-06T02:11:52;17.60;99.90
43987;DHT22;29650;47.378;8.300;2022-07-06T02:14:19;17.70;99.90
43987;DHT22;29650;47.378;8.300;2022-07-06T02:16:46;17.60;99.90
43987;DHT22;29650;47.378;8.300;2022-07-06T02:19:13;17.50;99.90
43987;DHT22;29650;47.378;8.300;2022-07-06T02:21:40;17.50;99.90
43987;DHT22;29650;47.378;8.300;2022-07-06T02:24:07;17.40;99.90
43987;DHT22;29650;47.378;8.300;2022-07-06T02:26:33;17.20;99.90
43987;DHT22;29650;47.378;8.300;2022-07-06T02:29:02;17.30;99.90
43987;DHT22;29650;47.378;8.300;2022-07-06T02:31:29;17.50;99.90
43987;DHT22;29650;47.378;8.300;2022-07-06T02:33:55;17.60;99.90
43987;DHT22;29650;47.378;8.300;2022-07-06T02:36:22;17.50;99.90
43987;DHT22;29650;47.378;8.300;2022-07-06T02:38:49;17.40;99.90
43987;DHT22;29650;47.378;8.300;2022-07-06T02:41:16;17.30;99.90
43987;DHT22;29650;47.378;8.300;2022-07-06T02:43:43;17.30;99.90
43987;DHT22;29650;47.378;8.300;2022-07-06T02:46:11;17.30;99.90
43987;DHT22;29650;47.378;8.300;2022-07-06T02:48:38;17.20;99.90
43987;DHT22;29650;47.378;8.300;2022-07-06T02:51:05;17.20;99.90
43987;DHT22;29650;47.378;8.300;2022-07-06T02:53:32;17.10;99.90
43987;DHT22;29650;47.378;8.300;2022-07-06T02:55:59;17.20;99.90
43987;DHT22;29650;47.378;8.300;2022-07-06T02:58:26;17.30;99.90
43987;DHT22;29650;47.378;8.300;2022-07-06T03:00:53;17.30;99.90
43987;DHT22;29650;47.378;8.300;2022-07-06T03:03:21;17.40;99.90
43987;DHT22;29650;47.378;8.300;2022-07-06T03:05:48;17.40;99.90
43987;DHT22;29650;47.378;8.300;2022-07-06T03:08:15;17.20;99.90
43987;DHT22;29650;47.378;8.300;2022-07-06T03:10:42;17.30;99.90
43987;DHT22;29650;47.378;8.300;2022-07-06T03:13:09;17.20;99.90
43987;DHT22;29650;47.378;8.300;2022-07-06T03:15:36;17.10;99.90
43987;DHT22;29650;47.378;8.300;2022-07-06T03:18:03;17.00;99.90
43987;DHT22;29650;47.378;8.300;2022-07-06T03:20:31;16.70;99.90
43987;DHT22;29650;47.378;8.300;2022-07-06T03:22:58;16.50;99.90
43987;DHT22;29650;47.378;8.300;2022-07-06T03:25:25;16.40;99.90
43987;DHT22;29650;47.378;8.300;2022-07-06T03:27:52;16.50;99.90
43987;DHT22;29650;47.378;8.300;2022-07-06T03:30:23;16.50;99.90
43987;DHT22;29650;47.378;8.300;2022-07-06T03:32:49;16.60;99.90
43987;DHT22;29650;47.378;8.300;2022-07-06T03:35:16;16.70;99.90
43987;DHT22;29650;47.378;8.300;2022-07-06T03:37:45;16.70;99.90
43987;DHT22;29650;47.378;8.300;2022-07-06T03:40:12;16.80;99.90
43987;DHT22;29650;47.378;8.300;2022-07-06T03:42:39;16.70;99.90
43987;DHT22;29650;47.378;8.300;2022-07-06T03:45:07;16.70;99.90
43987;DHT22;29650;47.378;8.300;2022-07-06T03:47:34;16.60;99.90
43987;DHT22;29650;47.378;8.300;2022-07-06T03:50:01;16.60;99.90
43987;DHT22;29650;47.378;8.300;2022-07-06T03:52:28;16.60;99.90
43987;DHT22;29650;47.378;8.300;2022-07-06T03:54:56;16.50;99.90
43987;DHT22;29650;47.378;8.300;2022-07-06T03:57:23;16.60;99.90
43987;DHT22;29650;47.378;8.300;2022-07-06T03:59:51;16.50;99.90
43987;DHT22;29650;47.378;8.300;2022-07-06T04:02:18;16.60;99.90
43987;DHT22;29650;47.378;8.300;2022-07-06T04:04:45;16.50;99.90
43987;DHT22;29650;47.378;8.300;2022-07-06T04:07:12;16.50;99.90
43987;DHT22;29650;47.378;8.300;2022-07-06T04:09:39;16.50;99.90
43987;DHT22;29650;47.378;8.300;2022-07-06T04:12:07;16.40;99.90
43987;DHT22;29650;47.378;8.300;2022-07-06T04:14:34;16.30;99.90
43987;DHT22;29650;47.378;8.300;2022-07-06T04:17:02;16.40;99.90
43987;DHT22;29650;47.378;8.300;2022-07-06T04:19:50;16.40;99.90
43987;DHT22;29650;47.378;8.300;2022-07-06T04:22:17;16.50;99.90
43987;DHT22;29650;47.378;8.300;2022-07-06T04:24:44;16.60;99.90
43987;DHT22;29650;47.378;8.300;2022-07-06T04:27:12;16.70;99.90
43987;DHT22;29650;47.378;8.300;2022-07-06T04:29:39;16.80;99.90
43987;DHT22;29650;47.378;8.300;2022-07-06T04:32:06;16.70;99.90
43987;DHT22;29650;47.378;8.300;2022-07-06T04:34:33;16.80;99.90
43987;DHT22;29650;47.378;8.300;2022-07-06T04:37:00;16.90;99.90
43987;DHT22;29650;47.378;8.300;2022-07-06T04:39:27;16.90;99.90
43987;DHT22;29650;47.378;8.300;2022-07-06T04:41:56;16.90;99.90
43987;DHT22;29650;47.378;8.300;2022-07-06T04:44:24;17.00;99.90
43987;DHT22;29650;47.378;8.300;2022-07-06T04:46:51;17.20;99.90
43987;DHT22;29650;47.378;8.300;2022-07-06T04:49:18;17.30;99.90
43987;DHT22;29650;47.378;8.300;2022-07-06T04:51:45;17.30;99.90
43987;DHT22;29650;47.378;8.300;2022-07-06T04:54:12;17.40;99.90
43987;DHT22;29650;47.378;8.300;2022-07-06T04:56:39;17.50;99.90
43987;DHT22;29650;47.378;8.300;2022-07-06T04:59:05;17.50;99.90
43987;DHT22;29650;47.378;8.300;2022-07-06T05:01:34;17.50;99.90
43987;DHT22;29650;47.378;8.300;2022-07-06T05:04:01;17.60;99.90
43987;DHT22;29650;47.378;8.300;2022-07-06T05:06:28;17.80;99.90
43987;DHT22;29650;47.378;8.300;2022-07-06T05:08:55;18.00;99.90
43987;DHT22;29650;47.378;8.300;2022-07-06T05:11:22;18.10;99.90
43987;DHT22;29650;47.378;8.300;2022-07-06T05:13:49;18.20;99.90
43987;DHT22;29650;47.378;8.300;2022-07-06T05:16:16;18.10;99.90
43987;DHT22;29650;47.378;8.300;2022-07-06T05:18:44;18.20;99.90
43987;DHT22;29650;47.378;8.300;2022-07-06T05:21:11;18.10;99.90
43987;DHT22;29650;47.378;8.300;2022-07-06T05:23:38;18.10;99.90
43987;DHT22;29650;47.378;8.300;2022-07-06T05:26:05;18.30;99.90
43987;DHT22;29650;47.378;8.300;2022-07-06T05:28:32;19.50;99.90
43987;DHT22;29650;47.378;8.300;2022-07-06T05:30:59;19.20;99.90
43987;DHT22;29650;47.378;8.300;2022-07-06T05:33:27;18.80;99.90
43987;DHT22;29650;47.378;8.300;2022-07-06T05:35:55;18.80;99.90
43987;DHT22;29650;47.378;8.300;2022-07-06T05:38:22;18.90;99.90
43987;DHT22;29650;47.378;8.300;2022-07-06T05:40:49;18.70;99.90
43987;DHT22;29650;47.378;8.300;2022-07-06T05:43:16;18.90;99.90
43987;DHT22;29650;47.378;8.300;2022-07-06T05:45:43;19.00;99.90
43987;DHT22;29650;47.378;8.300;2022-07-06T05:48:10;18.90;99.90
43987;DHT22;29650;47.378;8.300;2022-07-06T05:50:56;18.90;99.90
43987;DHT22;29650;47.378;8.300;2022-07-06T05:53:22;19.00;99.90
43987;DHT22;29650;47.378;8.300;2022-07-06T05:55:49;19.00;99.90
43987;DHT22;29650;47.378;8.300;2022-07-06T05:58:16;19.00;99.90
43987;DHT22;29650;47.378;8.300;2022-07-06T06:00:44;19.20;99.90
43987;DHT22;29650;47.378;8.300;2022-07-06T06:03:11;19.20;99.90
43987;DHT22;29650;47.378;8.300;2022-07-06T06:05:38;19.00;99.90
43987;DHT22;29650;47.378;8.300;2022-07-06T06:08:06;19.40;99.90
43987;DHT22;29650;47.378;8.300;2022-07-06T06:10:34;19.20;99.90
43987;DHT22;29650;47.378;8.300;2022-07-06T06:13:02;19.30;99.90
43987;DHT22;29650;47.378;8.300;2022-07-06T06:15:29;19.50;99.90
43987;DHT22;29650;47.378;8.300;2022-07-06T06:17:55;19.80;99.90
43987;DHT22;29650;47.378;8.300;2022-07-06T06:20:22;19.70;99.90
43987;DHT22;29650;47.378;8.300;2022-07-06T06:22:50;19.70;99.90
43987;DHT22;29650;47.378;8.300;2022-07-06T06:25:20;20.00;99.90
43987;DHT22;29650;47.378;8.300;2022-07-06T06:27:47;20.20;99.90
43987;DHT22;29650;47.378;8.300;2022-07-06T06:30:14;20.10;99.00
43987;DHT22;29650;47.378;8.300;2022-07-06T06:32:41;20.40;99.90
43987;DHT22;29650;47.378;8.300;2022-07-06T06:35:08;20.30;97.30
43987;DHT22;29650;47.378;8.300;2022-07-06T06:37:35;20.60;95.80
43987;DHT22;29650;47.378;8.300;2022-07-06T06:40:03;20.50;95.10
43987;DHT22;29650;47.378;8.300;2022-07-06T06:42:32;20.60;95.00
43987;DHT22;29650;47.378;8.300;2022-07-06T06:44:59;20.70;93.60
43987;DHT22;29650;47.378;8.300;2022-07-06T06:47:26;20.60;92.70
43987;DHT22;29650;47.378;8.300;2022-07-06T06:49:53;20.70;92.40
43987;DHT22;29650;47.378;8.300;2022-07-06T06:52:20;20.70;91.20
43987;DHT22;29650;47.378;8.300;2022-07-06T06:54:47;20.90;90.20
43987;DHT22;29650;47.378;8.300;2022-07-06T06:57:14;21.00;90.90
43987;DHT22;29650;47.378;8.300;2022-07-06T06:59:42;21.00;88.80
43987;DHT22;29650;47.378;8.300;2022-07-06T07:02:09;21.20;90.20
43987;DHT22;29650;47.378;8.300;2022-07-06T07:04:36;21.00;84.20
43987;DHT22;29650;47.378;8.300;2022-07-06T07:07:03;21.00;84.50
43987;DHT22;29650;47.378;8.300;2022-07-06T07:09:30;21.20;85.50
43987;DHT22;29650;47.378;8.300;2022-07-06T07:11:57;21.20;83.50
43987;DHT22;29650;47.378;8.300;2022-07-06T07:14:24;21.10;83.20
43987;DHT22;29650;47.378;8.300;2022-07-06T07:16:54;21.30;84.60
43987;DHT22;29650;47.378;8.300;2022-07-06T07:19:21;21.40;84.70
43987;DHT22;29650;47.378;8.300;2022-07-06T07:21:48;21.40;84.00
43987;DHT22;29650;47.378;8.300;2022-07-06T07:24:15;21.60;83.80
43987;DHT22;29650;47.378;8.300;2022-07-06T07:26:42;21.60;83.10
43987;DHT22;29650;47.378;8.300;2022-07-06T07:29:09;21.50;81.80
43987;DHT22;29650;47.378;8.300;2022-07-06T07:31:36;21.60;83.80
43987;DHT22;29650;47.378;8.300;2022-07-06T07:34:04;21.70;83.30
43987;DHT22;29650;47.378;8.300;2022-07-06T07:36:31;21.90;80.90
43987;DHT22;29650;47.378;8.300;2022-07-06T07:38:58;22.00;78.00
43987;DHT22;29650;47.378;8.300;2022-07-06T07:41:25;22.10;78.90
43987;DHT22;29650;47.378;8.300;2022-07-06T07:43:51;22.10;76.10
43987;DHT22;29650;47.378;8.300;2022-07-06T07:46:18;22.20;76.60
43987;DHT22;29650;47.378;8.300;2022-07-06T07:48:45;22.10;75.80
43987;DHT22;29650;47.378;8.300;2022-07-06T07:51:13;22.10;77.20
43987;DHT22;29650;47.378;8.300;2022-07-06T07:53:40;22.30;76.30
43987;DHT22;29650;47.378;8.300;2022-07-06T07:56:07;22.20;77.70
43987;DHT22;29650;47.378;8.300;2022-07-06T07:58:34;22.40;77.00
43987;DHT22;29650;47.378;8.300;2022-07-06T08:01:01;22.40;75.70
43987;DHT22;29650;47.378;8.300;2022-07-06T08:03:29;22.10;72.70
43987;DHT22;29650;47.378;8.300;2022-07-06T08:05:57;22.40;73.80
43987;DHT22;29650;47.378;8.300;2022-07-06T08:08:25;22.40;72.10
43987;DHT22;29650;47.378;8.300;2022-07-06T08:10:52;22.80;72.80
43987;DHT22;29650;47.378;8.300;2022-07-06T08:13:19;22.80;72.90
43987;DHT22;29650;47.378;8.300;2022-07-06T08:15:46;22.80;74.00
43987;DHT22;29650;47.378;8.300;2022-07-06T08:18:13;23.00;72.80
43987;DHT22;29650;47.378;8.300;2022-07-06T08:20:40;22.80;71.40
43987;DHT22;29650;47.378;8.300;2022-07-06T08:23:06;22.50;72.20
43987;DHT22;29650;47.378;8.300;2022-07-06T08:25:35;23.00;72.50
43987;DHT22;29650;47.378;8.300;2022-07-06T08:28:02;22.80;72.30
43987;DHT22;29650;47.378;8.300;2022-07-06T08:30:29;22.50;73.10
43987;DHT22;29650;47.378;8.300;2022-07-06T08:32:56;22.70;72.60
43987;DHT22;29650;47.378;8.300;2022-07-06T08:35:23;22.90;71.40
43987;DHT22;29650;47.378;8.300;2022-07-06T08:37:50;23.10;70.70
43987;DHT22;29650;47.378;8.300;2022-07-06T08:40:17;23.30;70.80
43987;DHT22;29650;47.378;8.300;2022-07-06T08:42:46;23.10;70.90
43987;DHT22;29650;47.378;8.300;2022-07-06T08:45:15;23.10;72.10
43987;DHT22;29650;47.378;8.300;2022-07-06T08:47:43;23.30;70.40
43987;DHT22;29650;47.378;8.300;2022-07-06T08:50:10;23.20;68.80
43987;DHT22;29650;47.378;8.300;2022-07-06T08:52:38;23.20;68.10
43987;DHT22;29650;47.378;8.300;2022-07-06T08:55:06;22.90;68.20
43987;DHT22;29650;47.378;8.300;2022-07-06T08:57:34;23.10;68.20
43987;DHT22;29650;47.378;8.300;2022-07-06T09:00:05;22.90;68.00
43987;DHT22;29650;47.378;8.300;2022-07-06T09:02:32;23.20;68.40
43987;DHT22;29650;47.378;8.300;2022-07-06T09:05:02;23.40;68.70
43987;DHT22;29650;47.378;8.300;2022-07-06T09:07:29;23.30;66.90
43987;DHT22;29650;47.378;8.300;2022-07-06T09:09:59;23.20;67.70
43987;DHT22;29650;47.378;8.300;2022-07-06T09:12:26;23.60;66.70
43987;DHT22;29650;47.378;8.300;2022-07-06T09:14:54;23.70;67.30
43987;DHT22;29650;47.378;8.300;2022-07-06T09:17:25;23.70;66.60
43987;DHT22;29650;47.378;8.300;2022-07-06T09:19:53;23.80;66.80
43987;DHT22;29650;47.378;8.300;2022-07-06T09:22:28;23.90;66.60
43987;DHT22;29650;47.378;8.300;2022-07-06T09:25:03;23.90;68.40
43987;DHT22;29650;47.378;8.300;2022-07-06T09:27:30;24.10;66.10
43987;DHT22;29650;47.378;8.300;2022-07-06T09:29:59;24.00;64.80
43987;DHT22;29650;47.378;8.300;2022-07-06T09:32:28;23.90;66.70
43987;DHT22;29650;47.378;8.300;2022-07-06T09:34:55;23.90;67.30
43987;DHT22;29650;47.378;8.300;2022-07-06T09:37:29;24.10;66.70
43987;DHT22;29650;47.378;8.300;2022-07-06T09:39:56;24.40;66.20
43987;DHT22;29650;47.378;8.300;2022-07-06T09:42:24;24.30;65.50
43987;DHT22;29650;47.378;8.300;2022-07-06T09:44:52;24.60;66.00
43987;DHT22;29650;47.378;8.300;2022-07-06T09:47:20;24.30;62.90
43987;DHT22;29650;47.378;8.300;2022-07-06T09:49:48;24.40;63.00
43987;DHT22;29650;47.378;8.300;2022-07-06T09:52:15;24.50;64.00
43987;DHT22;29650;47.378;8.300;2022-07-06T09:54:42;24.60;63.30
43987;DHT22;29650;47.378;8.300;2022-07-06T09:57:09;24.50;62.00
43987;DHT22;29650;47.378;8.300;2022-07-06T09:59:37;24.40;63.70
43987;DHT22;29650;47.378;8.300;2022-07-06T10:02:05;24.40;62.50
43987;DHT22;29650;47.378;8.300;2022-07-06T10:04:33;24.70;63.20
43987;DHT22;29650;47.378;8.300;2022-07-06T10:07:02;24.70;64.10
43987;DHT22;29650;47.378;8.300;2022-07-06T10:09:30;24.70;63.00
43987;DHT22;29650;47.378;8.300;2022-07-06T10:11:58;24.80;63.10
43987;DHT22;29650;47.378;8.300;2022-07-06T10:14:28;24.70;60.80
43987;DHT22;29650;47.378;8.300;2022-07-06T10:16:55;24.90;63.60
43987;DHT22;29650;47.378;8.300;2022-07-06T10:19:23;24.60;61.40
43987;DHT22;29650;47.378;8.300;2022-07-06T10:21:50;24.90;61.80
43987;DHT22;29650;47.378;8.300;2022-07-06T10:24:20;25.00;62.90
43987;DHT22;29650;47.378;8.300;2022-07-06T10:26:48;25.30;62.30
43987;DHT22;29650;47.378;8.300;2022-07-06T10:29:15;25.30;62.70
43987;DHT22;29650;47.378;8.300;2022-07-06T10:31:44;25.30;62.70
43987;DHT22;29650;47.378;8.300;2022-07-06T10:34:13;25.10;62.30
43987;DHT22;29650;47.378;8.300;2022-07-06T10:36:42;25.10;62.60
43987;DHT22;29650;47.378;8.300;2022-07-06T10:39:10;25.00;63.10
43987;DHT22;29650;47.378;8.300;2022-07-06T10:41:57;25.00;61.50
43987;DHT22;29650;47.378;8.300;2022-07-06T10:44:26;25.40;64.40
43987;DHT22;29650;47.378;8.300;2022-07-06T10:46:55;25.20;62.30
43987;DHT22;29650;47.378;8.300;2022-07-06T10:49:22;25.10;62.10
43987;DHT22;29650;47.378;8.300;2022-07-06T10:51:50;25.30;63.30
43987;DHT22;29650;47.378;8.300;2022-07-06T10:54:20;25.50;61.60
43987;DHT22;29650;47.378;8.300;2022-07-06T10:56:49;25.60;62.40
43987;DHT22;29650;47.378;8.300;2022-07-06T10:59:19;25.70;62.60
43987;DHT22;29650;47.378;8.300;2022-07-06T11:02:12;25.70;60.70
43987;DHT22;29650;47.378;8.300;2022-07-06T11:04:40;25.70;61.00
43987;DHT22;29650;47.378;8.300;2022-07-06T11:07:09;25.50;62.40
43987;DHT22;29650;47.378;8.300;2022-07-06T11:09:37;25.60;62.40
43987;DHT22;29650;47.378;8.300;2022-07-06T11:12:16;25.70;59.80
43987;DHT22;29650;47.378;8.300;2022-07-06T11:14:45;25.10;59.70
43987;DHT22;29650;47.378;8.300;2022-07-06T11:17:13;25.30;60.40
43987;DHT22;29650;47.378;8.300;2022-07-06T11:19:49;25.80;60.20
43987;DHT22;29650;47.378;8.300;2022-07-06T11:22:17;25.80;59.50
43987;DHT22;29650;47.378;8.300;2022-07-06T11:24:45;25.70;59.30
43987;DHT22;29650;47.378;8.300;2022-07-06T11:27:13;25.60;59.20
43987;DHT22;29650;47.378;8.300;2022-07-06T11:29:40;25.50;58.60
43987;DHT22;29650;47.378;8.300;2022-07-06T11:32:09;25.50;57.50
43987;DHT22;29650;47.378;8.300;2022-07-06T11:34:39;25.60;57.00
43987;DHT22;29650;47.378;8.300;2022-07-06T11:37:09;25.90;57.70
43987;DHT22;29650;47.378;8.300;2022-07-06T11:39:38;25.60;57.00
43987;DHT22;29650;47.378;8.300;2022-07-06T11:42:07;25.20;55.90
43987;DHT22;29650;47.378;8.300;2022-07-06T11:44:35;25.90;55.70
43987;DHT22;29650;47.378;8.300;2022-07-06T11:47:02;25.20;57.00
43987;DHT22;29650;47.378;8.300;2022-07-06T11:49:32;25.70;58.60
43987;DHT22;29650;47.378;8.300;2022-07-06T11:52:00;25.50;56.30
43987;DHT22;29650;47.378;8.300;2022-07-06T11:54:27;25.80;55.00
43987;DHT22;29650;47.378;8.300;2022-07-06T11:56:55;26.10;54.40
43987;DHT22;29650;47.378;8.300;2022-07-06T11:59:25;25.90;53.70
43987;DHT22;29650;47.378;8.300;2022-07-06T12:01:58;26.10;55.80
43987;DHT22;29650;47.378;8.300;2022-07-06T12:04:25;25.20;54.30
43987;DHT22;29650;47.378;8.300;2022-07-06T12:06:54;26.00;55.30
43987;DHT22;29650;47.378;8.300;2022-07-06T12:09:21;26.30;55.90
43987;DHT22;29650;47.378;8.300;2022-07-06T12:11:48;26.80;57.20
43987;DHT22;29650;47.378;8.300;2022-07-06T12:14:16;26.80;55.80
43987;DHT22;29650;47.378;8.300;2022-07-06T12:16:44;26.20;54.20
43987;DHT22;29650;47.378;8.300;2022-07-06T12:19:12;26.40;55.10
43987;DHT22;29650;47.378;8.300;2022-07-06T12:21:46;26.80;54.00
43987;DHT22;29650;47.378;8.300;2022-07-06T12:24:19;26.70;55.50
43987;DHT22;29650;47.378;8.300;2022-07-06T12:26:46;26.30;56.40
43987;DHT22;29650;47.378;8.300;2022-07-06T12:29:14;26.50;58.50
43987;DHT22;29650;47.378;8.300;2022-07-06T12:31:42;26.40;56.70
43987;DHT22;29650;47.378;8.300;2022-07-06T12:34:13;26.70;56.70
43987;DHT22;29650;47.378;8.300;2022-07-06T12:36:45;25.90;55.60
43987;DHT22;29650;47.378;8.300;2022-07-06T12:39:13;25.90;56.40
43987;DHT22;29650;47.378;8.300;2022-07-06T12:41:46;26.50;55.60
43987;DHT22;29650;47.378;8.300;2022-07-06T12:44:15;26.80;54.20
43987;DHT22;29650;47.378;8.300;2022-07-06T12:46:43;27.00;54.70
43987;DHT22;29650;47.378;8.300;2022-07-06T12:49:13;26.70;55.30
43987;DHT22;29650;47.378;8.300;2022-07-06T12:51:58;26.80;55.60
43987;DHT22;29650;47.378;8.300;2022-07-06T12:54:27;27.00;55.10
43987;DHT22;29650;47.378;8.300;2022-07-06T12:57:09;26.90;55.20
43987;DHT22;29650;47.378;8.300;2022-07-06T12:59:39;26.60;54.60
43987;DHT22;29650;47.378;8.300;2022-07-06T13:02:08;27.00;55.20
43987;DHT22;29650;47.378;8.300;2022-07-06T13:04:36;26.80;55.20
43987;DHT22;29650;47.378;8.300;2022-07-06T13:07:04;26.00;53.80
43987;DHT22;29650;47.378;8.300;2022-07-06T13:09:31;26.70;54.20
43987;DHT22;29650;47.378;8.300;2022-07-06T13:11:58;27.00;54.40
43987;DHT22;29650;47.378;8.300;2022-07-06T13:14:26;26.60;54.20
43987;DHT22;29650;47.378;8.300;2022-07-06T13:16:53;26.20;54.00
43987;DHT22;29650;47.378;8.300;2022-07-06T13:19:20;26.50;53.90
43987;DHT22;29650;47.378;8.300;2022-07-06T13:21:47;26.80;54.50
43987;DHT22;29650;47.378;8.300;2022-07-06T13:24:14;27.30;55.10
43987;DHT22;29650;47.378;8.300;2022-07-06T13:26:41;27.10;53.30
43987;DHT22;29650;47.378;8.300;2022-07-06T13:29:08;27.70;53.80
43987;DHT22;29650;47.378;8.300;2022-07-06T13:31:38;27.50;54.50
43987;DHT22;29650;47.378;8.300;2022-07-06T13:34:06;27.10;53.80
43987;DHT22;29650;47.378;8.300;2022-07-06T13:36:33;27.10;53.70
43987;DHT22;29650;47.378;8.300;2022-07-06T13:39:00;27.00;54.40
43987;DHT22;29650;47.378;8.300;2022-07-06T13:41:27;27.00;53.40
43987;DHT22;29650;47.378;8.300;2022-07-06T13:43:55;26.60;53.00
43987;DHT22;29650;47.378;8.300;2022-07-06T13:46:22;26.30;54.00
43987;DHT22;29650;47.378;8.300;2022-07-06T13:48:50;27.00;53.20
43987;DHT22;29650;47.378;8.300;2022-07-06T13:51:17;26.50;53.80
43987;DHT22;29650;47.378;8.300;2022-07-06T13:53:44;26.00;54.40
43987;DHT22;29650;47.378;8.300;2022-07-06T13:56:11;26.50;53.60
43987;DHT22;29650;47.378;8.300;2022-07-06T13:58:38;26.70;54.20
43987;DHT22;29650;47.378;8.300;2022-07-06T14:01:05;27.00;53.10
43987;DHT22;29650;47.378;8.300;2022-07-06T14:03:33;26.80;52.40
43987;DHT22;29650;47.378;8.300;2022-07-06T14:06:05;26.90;52.90
43987;DHT22;29650;47.378;8.300;2022-07-06T14:08:33;26.70;52.90
43987;DHT22;29650;47.378;8.300;2022-07-06T14:11:01;27.00;53.40
43987;DHT22;29650;47.378;8.300;2022-07-06T14:13:28;27.10;52.80
43987;DHT22;29650;47.378;8.300;2022-07-06T14:15:55;26.70;52.90
43987;DHT22;29650;47.378;8.300;2022-07-06T14:18:22;26.70;53.20
43987;DHT22;29650;47.378;8.300;2022-07-06T14:20:50;26.60;52.50
43987;DHT22;29650;47.378;8.300;2022-07-06T14:23:19;26.90;52.20
43987;DHT22;29650;47.378;8.300;2022-07-06T14:25:46;26.40;51.90
43987;DHT22;29650;47.378;8.300;2022-07-06T14:28:13;27.10;53.90
43987;DHT22;29650;47.378;8.300;2022-07-06T14:30:41;27.20;52.40
43987;DHT22;29650;47.378;8.300;2022-07-06T14:33:11;26.90;52.40
43987;DHT22;29650;47.378;8.300;2022-07-06T14:35:39;27.10;52.70
43987;DHT22;29650;47.378;8.300;2022-07-06T14:38:07;26.50;51.50
43987;DHT22;29650;47.378;8.300;2022-07-06T14:40:36;26.60;52.00
43987;DHT22;29650;47.378;8.300;2022-07-06T14:43:04;27.00;52.30
43987;DHT22;29650;47.378;8.300;2022-07-06T14:45:31;27.20;52.00
43987;DHT22;29650;47.378;8.300;2022-07-06T14:48:00;26.90;51.70
43987;DHT22;29650;47.378;8.300;2022-07-06T14:50:26;27.40;52.10
43987;DHT22;29650;47.378;8.300;2022-07-06T14:52:54;27.40;50.90
43987;DHT22;29650;47.378;8.300;2022-07-06T14:55:21;26.50;49.60
43987;DHT22;29650;47.378;8.300;2022-07-06T14:57:50;26.40;49.20
43987;DHT22;29650;47.378;8.300;2022-07-06T15:00:17;26.90;47.90
43987;DHT22;29650;47.378;8.300;2022-07-06T15:02:44;27.30;48.40
43987;DHT22;29650;47.378;8.300;2022-07-06T15:05:11;26.40;47.00
43987;DHT22;29650;47.378;8.300;2022-07-06T15:07:39;26.70;47.10
43987;DHT22;29650;47.378;8.300;2022-07-06T15:10:07;26.80;47.30
43987;DHT22;29650;47.378;8.300;2022-07-06T15:12:35;26.50;46.60
43987;DHT22;29650;47.378;8.300;2022-07-06T15:15:03;26.40;47.40
43987;DHT22;29650;47.378;8.300;2022-07-06T15:17:30;26.70;48.20
43987;DHT22;29650;47.378;8.300;2022-07-06T15:19:58;27.20;46.80
43987;DHT22;29650;47.378;8.300;2022-07-06T15:22:25;27.00;46.00
43987;DHT22;29650;47.378;8.300;2022-07-06T15:24:52;26.90;46.70
43987;DHT22;29650;47.378;8.300;2022-07-06T15:27:19;27.10;46.90
43987;DHT22;29650;47.378;8.300;2022-07-06T15:29:46;27.00;46.00
43987;DHT22;29650;47.378;8.300;2022-07-06T15:32:14;27.30;46.70
43987;DHT22;29650;47.378;8.300;2022-07-06T15:34:41;26.90;46.40